sim
Sign-in with your pilot id or email,
or register
Callsign
Passwort

Schedule Details

Flight Number: OEO6698
Departure: Munich Airport (EDDM) at 18:45
Arrival: Osaka Kansai International Airport (RJBB) at 05:50

Weather Information
Getting current METAR information for EDDM 262050Z 24017KT 9999 BKN022 BKN032 07/04 Q1001 NOSIG
Getting current METAR information for RJBB 262100Z 33013KT 9999 FEW010 SCT020 BKN040 22/19 Q1011 NOSIG

Schedule Frequency

Route Map